Veblen, South Dakota
Current Conditions -  °F | °C
As of 9:15 PM on Friday 21 Nov 2014 (Local Time) from KGWR Reporting Station
Clear Clear  
Wind Chill: -6°   Ceiling: Unl
Heat Index:   Visibility: 10mi
Dew Point: -2°   Wind: 16mph
Humidity: 87%   Direction: 220°SW
Pressure: 29.73"   Gusts: NA
Location:  45.86°N, 97.29°W
Report Text: KGWR 220315Z AUTO 22014KT 10SM CLR 00/M02 A2973 RMK A01 P000
Loading
Personal Weather Stations






























Interactive Weather Map New forecast layout! Learn more

10-Day Weather Forecast

Advertisements
Track Severe Weather on mobile